sensor_id;sensor_type;location;lat;lon;timestamp;P1;durP1;ratioP1;P2;durP2;ratioP2
10882;SDS011;5494;51.796;10.952;2023-03-14T00:00:27;4.13;;;1.50;;
10882;SDS011;5494;51.796;10.952;2023-03-14T00:02:55;1.40;;;1.30;;
10882;SDS011;5494;51.796;10.952;2023-03-14T00:05:23;1.10;;;1.00;;
10882;SDS011;5494;51.796;10.952;2023-03-14T00:07:52;1.77;;;1.20;;
10882;SDS011;5494;51.796;10.952;2023-03-14T00:10:20;2.07;;;1.10;;
10882;SDS011;5494;51.796;10.952;2023-03-14T00:12:48;1.37;;;1.27;;
10882;SDS011;5494;51.796;10.952;2023-03-14T00:15:16;5.40;;;1.20;;
10882;SDS011;5494;51.796;10.952;2023-03-14T00:17:45;1.17;;;0.97;;
10882;SDS011;5494;51.796;10.952;2023-03-14T00:20:13;1.60;;;1.00;;
10882;SDS011;5494;51.796;10.952;2023-03-14T00:22:41;2.80;;;1.23;;
10882;SDS011;5494;51.796;10.952;2023-03-14T00:25:10;2.50;;;0.90;;
10882;SDS011;5494;51.796;10.952;2023-03-14T00:27:39;1.57;;;0.93;;
10882;SDS011;5494;51.796;10.952;2023-03-14T00:30:07;1.53;;;1.10;;
10882;SDS011;5494;51.796;10.952;2023-03-14T00:32:37;2.40;;;1.17;;
10882;SDS011;5494;51.796;10.952;2023-03-14T00:35:07;2.30;;;1.03;;
10882;SDS011;5494;51.796;10.952;2023-03-14T00:37:35;1.73;;;1.33;;
10882;SDS011;5494;51.796;10.952;2023-03-14T00:40:05;1.73;;;1.00;;
10882;SDS011;5494;51.796;10.952;2023-03-14T00:42:34;3.10;;;1.10;;
10882;SDS011;5494;51.796;10.952;2023-03-14T00:45:03;1.40;;;1.10;;
10882;SDS011;5494;51.796;10.952;2023-03-14T00:47:33;1.20;;;0.80;;
10882;SDS011;5494;51.796;10.952;2023-03-14T00:50:01;2.03;;;1.20;;
10882;SDS011;5494;51.796;10.952;2023-03-14T00:52:31;2.83;;;1.23;;
10882;SDS011;5494;51.796;10.952;2023-03-14T00:54:59;1.97;;;0.80;;
10882;SDS011;5494;51.796;10.952;2023-03-14T00:57:27;1.20;;;0.90;;
10882;SDS011;5494;51.796;10.952;2023-03-14T00:59:55;1.07;;;0.97;;
10882;SDS011;5494;51.796;10.952;2023-03-14T01:02:23;3.40;;;0.90;;
10882;SDS011;5494;51.796;10.952;2023-03-14T01:04:51;1.60;;;0.83;;
10882;SDS011;5494;51.796;10.952;2023-03-14T01:07:21;1.40;;;0.90;;
10882;SDS011;5494;51.796;10.952;2023-03-14T01:09:52;2.00;;;1.00;;
10882;SDS011;5494;51.796;10.952;2023-03-14T01:12:20;2.37;;;0.90;;
10882;SDS011;5494;51.796;10.952;2023-03-14T01:14:48;1.20;;;0.90;;
10882;SDS011;5494;51.796;10.952;2023-03-14T01:17:16;2.60;;;0.93;;
10882;SDS011;5494;51.796;10.952;2023-03-14T01:19:43;1.33;;;1.07;;
10882;SDS011;5494;51.796;10.952;2023-03-14T01:22:11;1.63;;;0.90;;
10882;SDS011;5494;51.796;10.952;2023-03-14T01:24:39;2.37;;;0.90;;
10882;SDS011;5494;51.796;10.952;2023-03-14T01:27:08;1.27;;;0.90;;
10882;SDS011;5494;51.796;10.952;2023-03-14T01:29:37;1.23;;;0.73;;
10882;SDS011;5494;51.796;10.952;2023-03-14T01:32:06;1.40;;;1.03;;
10882;SDS011;5494;51.796;10.952;2023-03-14T01:34:34;1.80;;;0.93;;
10882;SDS011;5494;51.796;10.952;2023-03-14T01:37:02;1.50;;;0.80;;
10882;SDS011;5494;51.796;10.952;2023-03-14T01:39:30;1.53;;;0.80;;
10882;SDS011;5494;51.796;10.952;2023-03-14T01:41:59;1.40;;;1.10;;
10882;SDS011;5494;51.796;10.952;2023-03-14T01:44:44;1.97;;;1.10;;
10882;SDS011;5494;51.796;10.952;2023-03-14T01:47:15;1.10;;;1.00;;
10882;SDS011;5494;51.796;10.952;2023-03-14T01:49:43;1.40;;;0.80;;
10882;SDS011;5494;51.796;10.952;2023-03-14T01:52:16;1.30;;;0.90;;
10882;SDS011;5494;51.796;10.952;2023-03-14T01:54:50;3.90;;;1.17;;
10882;SDS011;5494;51.796;10.952;2023-03-14T01:57:22;0.90;;;0.70;;
10882;SDS011;5494;51.796;10.952;2023-03-14T01:59:58;1.43;;;0.90;;
10882;SDS011;5494;51.796;10.952;2023-03-14T02:02:40;1.30;;;0.73;;
10882;SDS011;5494;51.796;10.952;2023-03-14T02:05:17;1.10;;;0.80;;
10882;SDS011;5494;51.796;10.952;2023-03-14T02:07:54;1.70;;;0.80;;
10882;SDS011;5494;51.796;10.952;2023-03-14T02:10:31;1.63;;;0.77;;
10882;SDS011;5494;51.796;10.952;2023-03-14T02:13:05;2.60;;;1.00;;
10882;SDS011;5494;51.796;10.952;2023-03-14T02:15:53;1.80;;;0.90;;
10882;SDS011;5494;51.796;10.952;2023-03-14T02:18:40;1.37;;;0.90;;
10882;SDS011;5494;51.796;10.952;2023-03-14T02:21:42;1.40;;;0.80;;
10882;SDS011;5494;51.796;10.952;2023-03-14T02:24:24;0.80;;;0.70;;
10882;SDS011;5494;51.796;10.952;2023-03-14T02:27:09;2.40;;;0.90;;
10882;SDS011;5494;51.796;10.952;2023-03-14T02:29:46;1.30;;;0.80;;
10882;SDS011;5494;51.796;10.952;2023-03-14T02:32:20;1.40;;;0.80;;
10882;SDS011;5494;51.796;10.952;2023-03-14T02:34:52;2.97;;;1.00;;
10882;SDS011;5494;51.796;10.952;2023-03-14T02:37:26;3.07;;;1.07;;
10882;SDS011;5494;51.796;10.952;2023-03-14T02:40:04;2.03;;;0.90;;
10882;SDS011;5494;51.796;10.952;2023-03-14T02:42:35;3.53;;;1.20;;
10882;SDS011;5494;51.796;10.952;2023-03-14T02:48:11;1.70;;;1.00;;
10882;SDS011;5494;51.796;10.952;2023-03-14T02:50:45;1.47;;;0.80;;
10882;SDS011;5494;51.796;10.952;2023-03-14T02:53:17;1.47;;;1.37;;
10882;SDS011;5494;51.796;10.952;2023-03-14T02:55:50;1.60;;;1.07;;
10882;SDS011;5494;51.796;10.952;2023-03-14T02:58:22;1.47;;;1.10;;
10882;SDS011;5494;51.796;10.952;2023-03-14T03:00:56;3.03;;;1.10;;
10882;SDS011;5494;51.796;10.952;2023-03-14T03:03:24;4.53;;;1.00;;
10882;SDS011;5494;51.796;10.952;2023-03-14T03:05:54;1.10;;;0.80;;
10882;SDS011;5494;51.796;10.952;2023-03-14T03:08:25;2.77;;;1.03;;
10882;SDS011;5494;51.796;10.952;2023-03-14T03:10:56;3.33;;;1.17;;
10882;SDS011;5494;51.796;10.952;2023-03-14T03:13:29;2.20;;;0.90;;
10882;SDS011;5494;51.796;10.952;2023-03-14T03:15:59;1.90;;;1.30;;
10882;SDS011;5494;51.796;10.952;2023-03-14T03:18:28;1.97;;;1.30;;
10882;SDS011;5494;51.796;10.952;2023-03-14T03:20:59;4.33;;;1.00;;
10882;SDS011;5494;51.796;10.952;2023-03-14T03:23:27;2.67;;;1.20;;
10882;SDS011;5494;51.796;10.952;2023-03-14T03:25:56;1.97;;;1.10;;
10882;SDS011;5494;51.796;10.952;2023-03-14T03:28:27;3.70;;;1.50;;
10882;SDS011;5494;51.796;10.952;2023-03-14T03:30:57;2.43;;;1.10;;
10882;SDS011;5494;51.796;10.952;2023-03-14T03:33:25;1.67;;;1.20;;
10882;SDS011;5494;51.796;10.952;2023-03-14T03:35:53;2.80;;;1.27;;
10882;SDS011;5494;51.796;10.952;2023-03-14T03:38:28;3.30;;;1.30;;
10882;SDS011;5494;51.796;10.952;2023-03-14T03:40:58;1.77;;;1.30;;
10882;SDS011;5494;51.796;10.952;2023-03-14T03:43:27;3.20;;;1.50;;
10882;SDS011;5494;51.796;10.952;2023-03-14T03:45:57;3.87;;;1.37;;
10882;SDS011;5494;51.796;10.952;2023-03-14T03:48:25;4.67;;;1.60;;
10882;SDS011;5494;51.796;10.952;2023-03-14T03:50:53;2.97;;;1.50;;
10882;SDS011;5494;51.796;10.952;2023-03-14T03:53:22;2.23;;;1.30;;
10882;SDS011;5494;51.796;10.952;2023-03-14T03:56:01;3.17;;;1.40;;
10882;SDS011;5494;51.796;10.952;2023-03-14T03:58:29;1.77;;;1.20;;
10882;SDS011;5494;51.796;10.952;2023-03-14T04:00:59;2.90;;;1.47;;
10882;SDS011;5494;51.796;10.952;2023-03-14T04:03:27;1.63;;;1.27;;
10882;SDS011;5494;51.796;10.952;2023-03-14T04:05:59;1.57;;;1.47;;
10882;SDS011;5494;51.796;10.952;2023-03-14T04:08:31;4.63;;;1.77;;
10882;SDS011;5494;51.796;10.952;2023-03-14T04:11:00;1.57;;;1.20;;
10882;SDS011;5494;51.796;10.952;2023-03-14T04:13:50;4.10;;;1.77;;
10882;SDS011;5494;51.796;10.952;2023-03-14T04:16:21;2.07;;;1.10;;
10882;SDS011;5494;51.796;10.952;2023-03-14T04:18:58;3.27;;;1.40;;
10882;SDS011;5494;51.796;10.952;2023-03-14T04:21:26;3.30;;;1.33;;
10882;SDS011;5494;51.796;10.952;2023-03-14T04:23:56;3.20;;;1.30;;
10882;SDS011;5494;51.796;10.952;2023-03-14T04:26:28;2.67;;;1.50;;
10882;SDS011;5494;51.796;10.952;2023-03-14T04:28:56;7.00;;;2.03;;
10882;SDS011;5494;51.796;10.952;2023-03-14T04:31:25;3.23;;;1.47;;
10882;SDS011;5494;51.796;10.952;2023-03-14T04:33:53;2.37;;;1.63;;
10882;SDS011;5494;51.796;10.952;2023-03-14T04:36:28;2.77;;;1.50;;
10882;SDS011;5494;51.796;10.952;2023-03-14T04:39:01;2.37;;;1.50;;
10882;SDS011;5494;51.796;10.952;2023-03-14T04:41:31;4.67;;;1.90;;
10882;SDS011;5494;51.796;10.952;2023-03-14T04:43:59;5.53;;;2.03;;
10882;SDS011;5494;51.796;10.952;2023-03-14T04:46:28;1.43;;;1.17;;
10882;SDS011;5494;51.796;10.952;2023-03-14T04:48:57;5.43;;;1.60;;
10882;SDS011;5494;51.796;10.952;2023-03-14T04:51:25;4.13;;;1.37;;
10882;SDS011;5494;51.796;10.952;2023-03-14T04:53:54;2.57;;;1.50;;
10882;SDS011;5494;51.796;10.952;2023-03-14T04:56:23;2.10;;;1.40;;
10882;SDS011;5494;51.796;10.952;2023-03-14T04:58:51;3.57;;;1.77;;
10882;SDS011;5494;51.796;10.952;2023-03-14T05:01:20;4.40;;;1.60;;
10882;SDS011;5494;51.796;10.952;2023-03-14T05:04:02;4.40;;;1.90;;
10882;SDS011;5494;51.796;10.952;2023-03-14T05:06:53;5.00;;;1.60;;
10882;SDS011;5494;51.796;10.952;2023-03-14T05:09:27;2.83;;;1.40;;
10882;SDS011;5494;51.796;10.952;2023-03-14T05:12:18;2.67;;;1.33;;
10882;SDS011;5494;51.796;10.952;2023-03-14T05:15:19;2.27;;;1.10;;
10882;SDS011;5494;51.796;10.952;2023-03-14T05:17:58;2.33;;;1.30;;
10882;SDS011;5494;51.796;10.952;2023-03-14T05:20:48;4.33;;;2.73;;
10882;SDS011;5494;51.796;10.952;2023-03-14T05:23:41;6.07;;;2.00;;
10882;SDS011;5494;51.796;10.952;2023-03-14T05:26:15;2.47;;;1.20;;
10882;SDS011;5494;51.796;10.952;2023-03-14T05:29:00;3.40;;;1.13;;
10882;SDS011;5494;51.796;10.952;2023-03-14T05:31:34;6.43;;;1.80;;
10882;SDS011;5494;51.796;10.952;2023-03-14T05:34:23;2.80;;;1.30;;
10882;SDS011;5494;51.796;10.952;2023-03-14T05:37:21;3.93;;;1.47;;
10882;SDS011;5494;51.796;10.952;2023-03-14T05:40:02;7.23;;;1.57;;
10882;SDS011;5494;51.796;10.952;2023-03-14T05:42:39;5.67;;;1.20;;
10882;SDS011;5494;51.796;10.952;2023-03-14T05:45:17;1.50;;;1.00;;
10882;SDS011;5494;51.796;10.952;2023-03-14T05:48:00;3.87;;;1.50;;
10882;SDS011;5494;51.796;10.952;2023-03-14T05:50:39;2.20;;;1.20;;
10882;SDS011;5494;51.796;10.952;2023-03-14T05:53:31;4.63;;;1.50;;
10882;SDS011;5494;51.796;10.952;2023-03-14T05:56:31;2.07;;;1.30;;
10882;SDS011;5494;51.796;10.952;2023-03-14T05:59:03;3.20;;;1.03;;
10882;SDS011;5494;51.796;10.952;2023-03-14T06:01:53;3.33;;;1.30;;
10882;SDS011;5494;51.796;10.952;2023-03-14T06:04:25;4.33;;;1.40;;
10882;SDS011;5494;51.796;10.952;2023-03-14T06:06:57;4.33;;;1.43;;
10882;SDS011;5494;51.796;10.952;2023-03-14T06:09:27;2.77;;;1.10;;
10882;SDS011;5494;51.796;10.952;2023-03-14T06:11:57;2.00;;;1.20;;
10882;SDS011;5494;51.796;10.952;2023-03-14T06:14:29;2.57;;;1.37;;
10882;SDS011;5494;51.796;10.952;2023-03-14T06:16:58;6.07;;;2.33;;
10882;SDS011;5494;51.796;10.952;2023-03-14T06:19:29;4.70;;;2.40;;
10882;SDS011;5494;51.796;10.952;2023-03-14T06:21:57;4.47;;;1.23;;
10882;SDS011;5494;51.796;10.952;2023-03-14T06:24:27;4.53;;;1.10;;
10882;SDS011;5494;51.796;10.952;2023-03-14T06:26:55;2.20;;;1.40;;
10882;SDS011;5494;51.796;10.952;2023-03-14T06:29:23;2.27;;;1.40;;
10882;SDS011;5494;51.796;10.952;2023-03-14T06:31:51;3.00;;;1.20;;
10882;SDS011;5494;51.796;10.952;2023-03-14T06:34:19;3.53;;;1.30;;
10882;SDS011;5494;51.796;10.952;2023-03-14T06:36:47;3.93;;;1.20;;
10882;SDS011;5494;51.796;10.952;2023-03-14T06:39:16;4.80;;;1.10;;
10882;SDS011;5494;51.796;10.952;2023-03-14T06:41:49;4.27;;;1.27;;
10882;SDS011;5494;51.796;10.952;2023-03-14T06:44:18;4.93;;;1.13;;
10882;SDS011;5494;51.796;10.952;2023-03-14T06:46:46;2.90;;;1.17;;
10882;SDS011;5494;51.796;10.952;2023-03-14T06:49:14;3.50;;;1.63;;
10882;SDS011;5494;51.796;10.952;2023-03-14T06:51:42;3.70;;;1.33;;
10882;SDS011;5494;51.796;10.952;2023-03-14T06:54:11;2.50;;;0.93;;
10882;SDS011;5494;51.796;10.952;2023-03-14T06:56:40;3.57;;;1.07;;
10882;SDS011;5494;51.796;10.952;2023-03-14T06:59:10;3.33;;;1.13;;
10882;SDS011;5494;51.796;10.952;2023-03-14T07:01:39;2.07;;;0.90;;
10882;SDS011;5494;51.796;10.952;2023-03-14T07:04:09;1.63;;;0.90;;
10882;SDS011;5494;51.796;10.952;2023-03-14T07:06:42;1.90;;;0.93;;
10882;SDS011;5494;51.796;10.952;2023-03-14T07:09:12;4.60;;;1.20;;
10882;SDS011;5494;51.796;10.952;2023-03-14T07:11:47;3.10;;;1.00;;
10882;SDS011;5494;51.796;10.952;2023-03-14T07:14:17;3.00;;;1.00;;
10882;SDS011;5494;51.796;10.952;2023-03-14T07:16:47;3.47;;;1.20;;
10882;SDS011;5494;51.796;10.952;2023-03-14T07:19:17;2.17;;;1.00;;
10882;SDS011;5494;51.796;10.952;2023-03-14T07:21:45;4.20;;;1.03;;
10882;SDS011;5494;51.796;10.952;2023-03-14T07:24:15;4.00;;;1.10;;
10882;SDS011;5494;51.796;10.952;2023-03-14T07:26:43;2.13;;;1.00;;
10882;SDS011;5494;51.796;10.952;2023-03-14T07:29:11;2.57;;;0.90;;
10882;SDS011;5494;51.796;10.952;2023-03-14T07:31:41;3.80;;;0.87;;
10882;SDS011;5494;51.796;10.952;2023-03-14T07:34:09;2.73;;;0.67;;
10882;SDS011;5494;51.796;10.952;2023-03-14T07:36:41;3.20;;;0.90;;
10882;SDS011;5494;51.796;10.952;2023-03-14T07:39:09;0.90;;;0.70;;
10882;SDS011;5494;51.796;10.952;2023-03-14T07:41:56;1.50;;;0.90;;
10882;SDS011;5494;51.796;10.952;2023-03-14T07:44:52;1.27;;;0.70;;
10882;SDS011;5494;51.796;10.952;2023-03-14T07:47:21;3.37;;;0.70;;
10882;SDS011;5494;51.796;10.952;2023-03-14T07:49:49;1.17;;;0.50;;
10882;SDS011;5494;51.796;10.952;2023-03-14T07:52:17;3.03;;;0.70;;
10882;SDS011;5494;51.796;10.952;2023-03-14T07:54:45;2.00;;;0.87;;
10882;SDS011;5494;51.796;10.952;2023-03-14T07:57:13;1.40;;;0.80;;
10882;SDS011;5494;51.796;10.952;2023-03-14T07:59:41;3.00;;;0.90;;
10882;SDS011;5494;51.796;10.952;2023-03-14T08:02:09;1.20;;;0.60;;
10882;SDS011;5494;51.796;10.952;2023-03-14T08:04:41;1.87;;;0.93;;
10882;SDS011;5494;51.796;10.952;2023-03-14T08:07:09;1.53;;;0.80;;
10882;SDS011;5494;51.796;10.952;2023-03-14T08:09:37;2.37;;;1.00;;
10882;SDS011;5494;51.796;10.952;2023-03-14T08:12:05;2.13;;;0.60;;
10882;SDS011;5494;51.796;10.952;2023-03-14T08:14:34;2.30;;;0.90;;
10882;SDS011;5494;51.796;10.952;2023-03-14T08:17:02;1.20;;;0.70;;
10882;SDS011;5494;51.796;10.952;2023-03-14T08:19:31;2.67;;;1.07;;
10882;SDS011;5494;51.796;10.952;2023-03-14T08:22:00;1.33;;;0.70;;
10882;SDS011;5494;51.796;10.952;2023-03-14T08:24:28;1.10;;;0.67;;
10882;SDS011;5494;51.796;10.952;2023-03-14T08:26:57;0.73;;;0.50;;
10882;SDS011;5494;51.796;10.952;2023-03-14T08:29:26;1.30;;;0.80;;
10882;SDS011;5494;51.796;10.952;2023-03-14T08:31:54;2.23;;;0.70;;
10882;SDS011;5494;51.796;10.952;2023-03-14T08:34:22;0.93;;;0.60;;
10882;SDS011;5494;51.796;10.952;2023-03-14T08:36:50;1.03;;;0.50;;
10882;SDS011;5494;51.796;10.952;2023-03-14T08:39:20;1.63;;;0.80;;
10882;SDS011;5494;51.796;10.952;2023-03-14T08:41:49;2.10;;;0.70;;
10882;SDS011;5494;51.796;10.952;2023-03-14T08:44:17;1.57;;;0.70;;
10882;SDS011;5494;51.796;10.952;2023-03-14T08:46:46;2.30;;;1.50;;
10882;SDS011;5494;51.796;10.952;2023-03-14T08:49:14;1.23;;;0.60;;
10882;SDS011;5494;51.796;10.952;2023-03-14T08:51:42;2.00;;;0.67;;
10882;SDS011;5494;51.796;10.952;2023-03-14T08:54:10;2.07;;;0.60;;
10882;SDS011;5494;51.796;10.952;2023-03-14T08:56:39;0.60;;;0.50;;
10882;SDS011;5494;51.796;10.952;2023-03-14T08:59:07;2.80;;;1.10;;
10882;SDS011;5494;51.796;10.952;2023-03-14T09:01:37;1.57;;;0.80;;
10882;SDS011;5494;51.796;10.952;2023-03-14T09:04:05;0.97;;;0.63;;
10882;SDS011;5494;51.796;10.952;2023-03-14T09:06:33;1.37;;;0.80;;
10882;SDS011;5494;51.796;10.952;2023-03-14T09:09:01;2.87;;;0.70;;
10882;SDS011;5494;51.796;10.952;2023-03-14T09:11:29;2.40;;;0.60;;
10882;SDS011;5494;51.796;10.952;2023-03-14T09:13:59;2.63;;;0.80;;
10882;SDS011;5494;51.796;10.952;2023-03-14T09:16:27;4.50;;;0.90;;
10882;SDS011;5494;51.796;10.952;2023-03-14T09:19:00;2.17;;;0.67;;
10882;SDS011;5494;51.796;10.952;2023-03-14T09:21:29;3.53;;;1.67;;
10882;SDS011;5494;51.796;10.952;2023-03-14T09:23:57;3.07;;;0.80;;
10882;SDS011;5494;51.796;10.952;2023-03-14T09:26:25;1.40;;;0.70;;
10882;SDS011;5494;51.796;10.952;2023-03-14T09:28:53;2.77;;;0.80;;
10882;SDS011;5494;51.796;10.952;2023-03-14T09:31:25;1.80;;;0.53;;
10882;SDS011;5494;51.796;10.952;2023-03-14T09:33:54;0.93;;;0.40;;
10882;SDS011;5494;51.796;10.952;2023-03-14T09:36:23;3.30;;;0.70;;
10882;SDS011;5494;51.796;10.952;2023-03-14T09:38:51;1.20;;;0.80;;
10882;SDS011;5494;51.796;10.952;2023-03-14T09:41:21;2.10;;;0.60;;
10882;SDS011;5494;51.796;10.952;2023-03-14T09:43:55;1.43;;;0.53;;
10882;SDS011;5494;51.796;10.952;2023-03-14T09:46:32;1.27;;;0.70;;
10882;SDS011;5494;51.796;10.952;2023-03-14T09:49:07;2.03;;;0.37;;
10882;SDS011;5494;51.796;10.952;2023-03-14T09:51:42;0.70;;;0.40;;
10882;SDS011;5494;51.796;10.952;2023-03-14T09:54:15;2.17;;;0.57;;
10882;SDS011;5494;51.796;10.952;2023-03-14T09:56:57;1.03;;;0.40;;
10882;SDS011;5494;51.796;10.952;2023-03-14T09:59:26;1.17;;;0.50;;
10882;SDS011;5494;51.796;10.952;2023-03-14T10:01:58;2.13;;;0.80;;
10882;SDS011;5494;51.796;10.952;2023-03-14T10:04:29;3.47;;;0.67;;
10882;SDS011;5494;51.796;10.952;2023-03-14T10:06:59;0.50;;;0.40;;
10882;SDS011;5494;51.796;10.952;2023-03-14T10:09:30;1.10;;;0.30;;
10882;SDS011;5494;51.796;10.952;2023-03-14T10:11:58;2.47;;;0.40;;
10882;SDS011;5494;51.796;10.952;2023-03-14T10:14:31;2.33;;;0.50;;
10882;SDS011;5494;51.796;10.952;2023-03-14T10:17:06;0.63;;;0.50;;
10882;SDS011;5494;51.796;10.952;2023-03-14T10:19:36;1.37;;;0.50;;
10882;SDS011;5494;51.796;10.952;2023-03-14T10:22:17;0.67;;;0.47;;
10882;SDS011;5494;51.796;10.952;2023-03-14T10:24:46;1.80;;;0.50;;
10882;SDS011;5494;51.796;10.952;2023-03-14T10:27:22;0.77;;;0.50;;
10882;SDS011;5494;51.796;10.952;2023-03-14T10:29:57;0.30;;;0.30;;
10882;SDS011;5494;51.796;10.952;2023-03-14T10:32:31;0.90;;;0.40;;
10882;SDS011;5494;51.796;10.952;2023-03-14T10:35:07;0.30;;;0.20;;
10882;SDS011;5494;51.796;10.952;2023-03-14T10:37:48;1.77;;;0.50;;
10882;SDS011;5494;51.796;10.952;2023-03-14T10:40:24;1.37;;;0.60;;
10882;SDS011;5494;51.796;10.952;2023-03-14T10:42:57;1.20;;;0.67;;
10882;SDS011;5494;51.796;10.952;2023-03-14T10:45:34;3.87;;;0.70;;
10882;SDS011;5494;51.796;10.952;2023-03-14T10:48:16;0.93;;;0.60;;
10882;SDS011;5494;51.796;10.952;2023-03-14T10:50:53;1.40;;;0.50;;
10882;SDS011;5494;51.796;10.952;2023-03-14T10:53:24;0.53;;;0.40;;
10882;SDS011;5494;51.796;10.952;2023-03-14T10:55:55;0.70;;;0.40;;
10882;SDS011;5494;51.796;10.952;2023-03-14T10:58:24;0.37;;;0.23;;
10882;SDS011;5494;51.796;10.952;2023-03-14T11:01:00;2.00;;;0.60;;
10882;SDS011;5494;51.796;10.952;2023-03-14T11:03:45;3.27;;;1.00;;
10882;SDS011;5494;51.796;10.952;2023-03-14T11:06:23;0.93;;;0.40;;
10882;SDS011;5494;51.796;10.952;2023-03-14T11:09:05;0.80;;;0.47;;
10882;SDS011;5494;51.796;10.952;2023-03-14T11:11:46;1.40;;;0.30;;
10882;SDS011;5494;51.796;10.952;2023-03-14T11:14:20;2.63;;;0.90;;
10882;SDS011;5494;51.796;10.952;2023-03-14T11:16:59;0.60;;;0.60;;
10882;SDS011;5494;51.796;10.952;2023-03-14T11:19:48;0.30;;;0.30;;
10882;SDS011;5494;51.796;10.952;2023-03-14T11:22:35;0.57;;;0.33;;
10882;SDS011;5494;51.796;10.952;2023-03-14T11:25:13;0.30;;;0.30;;
10882;SDS011;5494;51.796;10.952;2023-03-14T11:27:54;0.57;;;0.30;;
10882;SDS011;5494;51.796;10.952;2023-03-14T11:30:34;1.30;;;0.37;;
10882;SDS011;5494;51.796;10.952;2023-03-14T11:33:13;1.93;;;0.60;;
10882;SDS011;5494;51.796;10.952;2023-03-14T11:35:47;0.27;;;0.27;;
10882;SDS011;5494;51.796;10.952;2023-03-14T11:38:29;0.93;;;0.40;;
10882;SDS011;5494;51.796;10.952;2023-03-14T11:41:08;0.50;;;0.40;;
10882;SDS011;5494;51.796;10.952;2023-03-14T11:43:42;0.80;;;0.40;;
10882;SDS011;5494;51.796;10.952;2023-03-14T11:46:20;0.40;;;0.40;;
10882;SDS011;5494;51.796;10.952;2023-03-14T11:48:57;1.07;;;0.37;;
10882;SDS011;5494;51.796;10.952;2023-03-14T11:51:38;0.20;;;0.20;;
10882;SDS011;5494;51.796;10.952;2023-03-14T11:54:12;1.10;;;0.50;;
10882;SDS011;5494;51.796;10.952;2023-03-14T11:56:57;1.90;;;0.47;;
10882;SDS011;5494;51.796;10.952;2023-03-14T11:59:33;1.03;;;0.50;;
10882;SDS011;5494;51.796;10.952;2023-03-14T12:02:16;0.73;;;0.37;;
10882;SDS011;5494;51.796;10.952;2023-03-14T12:04:59;0.93;;;0.40;;
10882;SDS011;5494;51.796;10.952;2023-03-14T12:08:03;1.30;;;0.30;;
10882;SDS011;5494;51.796;10.952;2023-03-14T12:11:08;0.50;;;0.33;;
10882;SDS011;5494;51.796;10.952;2023-03-14T12:13:45;2.43;;;0.33;;
10882;SDS011;5494;51.796;10.952;2023-03-14T12:16:30;0.30;;;0.30;;
10882;SDS011;5494;51.796;10.952;2023-03-14T12:19:13;0.40;;;0.40;;
10882;SDS011;5494;51.796;10.952;2023-03-14T12:24:59;0.30;;;0.30;;
10882;SDS011;5494;51.796;10.952;2023-03-14T12:30:43;2.10;;;0.67;;
10882;SDS011;5494;51.796;10.952;2023-03-14T12:33:19;1.07;;;0.60;;
10882;SDS011;5494;51.796;10.952;2023-03-14T12:36:17;1.83;;;0.53;;
10882;SDS011;5494;51.796;10.952;2023-03-14T12:39:19;2.57;;;0.67;;
10882;SDS011;5494;51.796;10.952;2023-03-14T12:42:04;1.27;;;0.40;;
10882;SDS011;5494;51.796;10.952;2023-03-14T12:44:41;0.53;;;0.37;;
10882;SDS011;5494;51.796;10.952;2023-03-14T12:50:35;0.40;;;0.40;;
10882;SDS011;5494;51.796;10.952;2023-03-14T12:56:17;0.53;;;0.47;;
10882;SDS011;5494;51.796;10.952;2023-03-14T12:59:02;2.17;;;0.90;;
10882;SDS011;5494;51.796;10.952;2023-03-14T13:01:53;0.50;;;0.50;;
10882;SDS011;5494;51.796;10.952;2023-03-14T13:04:27;0.50;;;0.50;;
10882;SDS011;5494;51.796;10.952;2023-03-14T13:07:10;1.10;;;0.40;;
10882;SDS011;5494;51.796;10.952;2023-03-14T13:12:48;2.93;;;0.50;;
10882;SDS011;5494;51.796;10.952;2023-03-14T13:15:21;1.17;;;0.60;;
10882;SDS011;5494;51.796;10.952;2023-03-14T13:17:54;0.93;;;0.50;;
10882;SDS011;5494;51.796;10.952;2023-03-14T13:20:30;3.40;;;0.60;;
10882;SDS011;5494;51.796;10.952;2023-03-14T13:23:03;2.63;;;0.57;;
10882;SDS011;5494;51.796;10.952;2023-03-14T13:25:32;1.23;;;0.50;;
10882;SDS011;5494;51.796;10.952;2023-03-14T13:28:04;0.33;;;0.30;;
10882;SDS011;5494;51.796;10.952;2023-03-14T13:30:38;1.50;;;0.47;;
10882;SDS011;5494;51.796;10.952;2023-03-14T13:33:11;1.60;;;0.83;;
10882;SDS011;5494;51.796;10.952;2023-03-14T13:35:44;1.70;;;0.73;;
10882;SDS011;5494;51.796;10.952;2023-03-14T13:38:18;1.33;;;0.50;;
10882;SDS011;5494;51.796;10.952;2023-03-14T13:40:49;0.60;;;0.50;;
10882;SDS011;5494;51.796;10.952;2023-03-14T13:43:26;1.23;;;0.50;;
10882;SDS011;5494;51.796;10.952;2023-03-14T13:46:03;0.43;;;0.30;;
10882;SDS011;5494;51.796;10.952;2023-03-14T13:48:35;1.37;;;0.30;;
10882;SDS011;5494;51.796;10.952;2023-03-14T13:51:14;0.40;;;0.40;;
10882;SDS011;5494;51.796;10.952;2023-03-14T13:53:47;3.23;;;0.70;;
10882;SDS011;5494;51.796;10.952;2023-03-14T13:56:17;0.77;;;0.30;;
10882;SDS011;5494;51.796;10.952;2023-03-14T13:58:50;0.70;;;0.60;;
10882;SDS011;5494;51.796;10.952;2023-03-14T14:01:20;0.60;;;0.57;;
10882;SDS011;5494;51.796;10.952;2023-03-14T14:03:53;0.67;;;0.60;;
10882;SDS011;5494;51.796;10.952;2023-03-14T14:06:28;1.90;;;0.70;;
10882;SDS011;5494;51.796;10.952;2023-03-14T14:08:59;0.70;;;0.67;;
10882;SDS011;5494;51.796;10.952;2023-03-14T14:11:41;0.50;;;0.40;;
10882;SDS011;5494;51.796;10.952;2023-03-14T14:14:34;0.30;;;0.30;;
10882;SDS011;5494;51.796;10.952;2023-03-14T14:17:09;0.43;;;0.30;;
10882;SDS011;5494;51.796;10.952;2023-03-14T14:19:42;0.47;;;0.30;;
10882;SDS011;5494;51.796;10.952;2023-03-14T14:22:14;0.30;;;0.30;;
10882;SDS011;5494;51.796;10.952;2023-03-14T14:24:43;0.50;;;0.50;;
10882;SDS011;5494;51.796;10.952;2023-03-14T14:27:13;0.43;;;0.40;;
10882;SDS011;5494;51.796;10.952;2023-03-14T14:29:44;0.50;;;0.47;;
10882;SDS011;5494;51.796;10.952;2023-03-14T14:32:33;0.33;;;0.33;;
10882;SDS011;5494;51.796;10.952;2023-03-14T14:35:04;0.67;;;0.60;;
10882;SDS011;5494;51.796;10.952;2023-03-14T14:37:34;0.77;;;0.40;;
10882;SDS011;5494;51.796;10.952;2023-03-14T14:40:14;1.87;;;0.30;;
10882;SDS011;5494;51.796;10.952;2023-03-14T14:42:47;1.43;;;0.40;;
10882;SDS011;5494;51.796;10.952;2023-03-14T14:45:17;0.50;;;0.50;;
10882;SDS011;5494;51.796;10.952;2023-03-14T14:47:50;0.93;;;0.73;;
10882;SDS011;5494;51.796;10.952;2023-03-14T14:50:26;1.87;;;0.97;;
10882;SDS011;5494;51.796;10.952;2023-03-14T14:52:57;0.73;;;0.70;;
10882;SDS011;5494;51.796;10.952;2023-03-14T14:55:29;3.73;;;0.80;;
10882;SDS011;5494;51.796;10.952;2023-03-14T14:58:11;1.07;;;0.97;;
10882;SDS011;5494;51.796;10.952;2023-03-14T15:00:52;4.13;;;1.20;;
10882;SDS011;5494;51.796;10.952;2023-03-14T15:03:27;3.40;;;1.50;;
10882;SDS011;5494;51.796;10.952;2023-03-14T15:05:58;4.97;;;1.67;;
10882;SDS011;5494;51.796;10.952;2023-03-14T15:08:26;6.87;;;1.63;;
10882;SDS011;5494;51.796;10.952;2023-03-14T15:10:55;2.47;;;1.00;;
10882;SDS011;5494;51.796;10.952;2023-03-14T15:13:24;5.10;;;1.30;;
10882;SDS011;5494;51.796;10.952;2023-03-14T15:15:52;4.97;;;1.50;;
10882;SDS011;5494;51.796;10.952;2023-03-14T15:18:22;3.90;;;1.87;;
10882;SDS011;5494;51.796;10.952;2023-03-14T15:20:57;5.07;;;2.50;;
10882;SDS011;5494;51.796;10.952;2023-03-14T15:23:26;6.77;;;2.10;;
10882;SDS011;5494;51.796;10.952;2023-03-14T15:25:54;6.47;;;2.77;;
10882;SDS011;5494;51.796;10.952;2023-03-14T15:28:22;7.43;;;2.27;;
10882;SDS011;5494;51.796;10.952;2023-03-14T15:30:53;10.10;;;3.13;;
10882;SDS011;5494;51.796;10.952;2023-03-14T15:33:23;7.97;;;3.60;;
10882;SDS011;5494;51.796;10.952;2023-03-14T15:35:53;20.63;;;7.23;;
10882;SDS011;5494;51.796;10.952;2023-03-14T15:38:24;6.07;;;2.43;;
10882;SDS011;5494;51.796;10.952;2023-03-14T15:40:52;20.53;;;9.93;;
10882;SDS011;5494;51.796;10.952;2023-03-14T15:43:20;9.10;;;3.87;;